sensor_id;sensor_type;location;lat;lon;timestamp;pressure;altitude;pressure_sealevel;temperature;humidity
62926;BME280;55732;52.248;-0.844;2023-02-22T00:00:28;100348.84;;;7.28;86.32
62926;BME280;55732;52.248;-0.844;2023-02-22T00:03:15;100348.65;;;7.27;86.28
62926;BME280;55732;52.248;-0.844;2023-02-22T00:05:42;100347.41;;;7.27;86.34
62926;BME280;55732;52.248;-0.844;2023-02-22T00:08:15;100339.35;;;7.26;86.38
62926;BME280;55732;52.248;-0.844;2023-02-22T00:10:43;100339.70;;;7.27;86.34
62926;BME280;55732;52.248;-0.844;2023-02-22T00:13:11;100335.86;;;7.27;86.36
62926;BME280;55732;52.248;-0.844;2023-02-22T00:15:37;100336.73;;;7.27;86.26
62926;BME280;55732;52.248;-0.844;2023-02-22T00:18:06;100339.54;;;7.27;86.31
62926;BME280;55732;52.248;-0.844;2023-02-22T00:20:35;100334.64;;;7.27;86.47
62926;BME280;55732;52.248;-0.844;2023-02-22T00:23:04;100340.61;;;7.29;86.44
62926;BME280;55732;52.248;-0.844;2023-02-22T00:25:32;100347.45;;;7.31;86.53
62926;BME280;55732;52.248;-0.844;2023-02-22T00:27:58;100345.34;;;7.33;86.52
62926;BME280;55732;52.248;-0.844;2023-02-22T00:30:28;100340.13;;;7.36;86.58
62926;BME280;55732;52.248;-0.844;2023-02-22T00:32:55;100343.83;;;7.39;86.62
62926;BME280;55732;52.248;-0.844;2023-02-22T00:35:24;100346.66;;;7.41;86.40
62926;BME280;55732;52.248;-0.844;2023-02-22T00:37:51;100342.11;;;7.42;86.34
62926;BME280;55732;52.248;-0.844;2023-02-22T00:40:20;100345.80;;;7.43;86.40
62926;BME280;55732;52.248;-0.844;2023-02-22T00:42:46;100347.02;;;7.44;86.48
62926;BME280;55732;52.248;-0.844;2023-02-22T00:45:14;100347.72;;;7.45;86.44
62926;BME280;55732;52.248;-0.844;2023-02-22T00:47:41;100343.16;;;7.45;86.35
62926;BME280;55732;52.248;-0.844;2023-02-22T00:50:08;100339.84;;;7.44;86.25
62926;BME280;55732;52.248;-0.844;2023-02-22T00:52:35;100340.88;;;7.44;86.29
62926;BME280;55732;52.248;-0.844;2023-02-22T00:55:01;100341.06;;;7.44;86.45
62926;BME280;55732;52.248;-0.844;2023-02-22T00:57:26;100337.74;;;7.45;86.44
62926;BME280;55732;52.248;-0.844;2023-02-22T00:59:52;100335.83;;;7.46;86.40
62926;BME280;55732;52.248;-0.844;2023-02-22T01:02:17;100334.25;;;7.47;86.41
62926;BME280;55732;52.248;-0.844;2023-02-22T01:04:43;100329.35;;;7.47;86.39
62926;BME280;55732;52.248;-0.844;2023-02-22T01:07:08;100327.77;;;7.46;86.34
62926;BME280;55732;52.248;-0.844;2023-02-22T01:09:34;100328.82;;;7.46;86.23
62926;BME280;55732;52.248;-0.844;2023-02-22T01:12:00;100330.75;;;7.47;86.45
62926;BME280;55732;52.248;-0.844;2023-02-22T01:14:27;100324.44;;;7.47;86.63
62926;BME280;55732;52.248;-0.844;2023-02-22T01:16:54;100320.77;;;7.47;86.39
62926;BME280;55732;52.248;-0.844;2023-02-22T01:19:21;100310.77;;;7.46;86.40
62926;BME280;55732;52.248;-0.844;2023-02-22T01:21:47;100306.04;;;7.46;86.32
62926;BME280;55732;52.248;-0.844;2023-02-22T01:24:13;100302.19;;;7.46;86.41
62926;BME280;55732;52.248;-0.844;2023-02-22T01:26:41;100294.30;;;7.46;86.40
62926;BME280;55732;52.248;-0.844;2023-02-22T01:29:11;100293.08;;;7.44;86.23
62926;BME280;55732;52.248;-0.844;2023-02-22T01:31:40;100289.92;;;7.41;86.30
62926;BME280;55732;52.248;-0.844;2023-02-22T01:34:09;100288.66;;;7.39;86.32
62926;BME280;55732;52.248;-0.844;2023-02-22T01:36:35;100292.33;;;7.37;86.35
62926;BME280;55732;52.248;-0.844;2023-02-22T01:39:00;100298.78;;;7.35;86.29
62926;BME280;55732;52.248;-0.844;2023-02-22T01:41:26;100295.08;;;7.33;86.59
62926;BME280;55732;52.248;-0.844;2023-02-22T01:43:51;100292.64;;;7.33;86.56
62926;BME280;55732;52.248;-0.844;2023-02-22T01:46:25;100285.64;;;7.34;86.64
62926;BME280;55732;52.248;-0.844;2023-02-22T01:51:26;100282.15;;;7.35;86.76
62926;BME280;55732;52.248;-0.844;2023-02-22T01:53:56;100278.82;;;7.36;86.88
62926;BME280;55732;52.248;-0.844;2023-02-22T01:56:24;100270.23;;;7.35;86.95
62926;BME280;55732;52.248;-0.844;2023-02-22T01:59:00;100269.70;;;7.35;87.05
62926;BME280;55732;52.248;-0.844;2023-02-22T02:01:27;100270.92;;;7.34;87.27
62926;BME280;55732;52.248;-0.844;2023-02-22T02:03:55;100273.92;;;7.36;87.44
62926;BME280;55732;52.248;-0.844;2023-02-22T02:06:23;100270.95;;;7.36;87.46
62926;BME280;55732;52.248;-0.844;2023-02-22T02:11:31;100272.31;;;7.33;87.97
62926;BME280;55732;52.248;-0.844;2023-02-22T02:13:57;100269.16;;;7.32;88.12
62926;BME280;55732;52.248;-0.844;2023-02-22T02:16:41;100268.30;;;7.31;88.13
62926;BME280;55732;52.248;-0.844;2023-02-22T02:19:33;100266.73;;;7.30;88.20
62926;BME280;55732;52.248;-0.844;2023-02-22T02:28:22;100262.48;;;7.26;88.47
62926;BME280;55732;52.248;-0.844;2023-02-22T02:39:51;100251.23;;;7.21;88.72
62926;BME280;55732;52.248;-0.844;2023-02-22T02:42:21;100250.18;;;7.20;88.78
62926;BME280;55732;52.248;-0.844;2023-02-22T02:45:01;100251.41;;;7.19;88.79
62926;BME280;55732;52.248;-0.844;2023-02-22T02:47:31;100257.18;;;7.19;88.77
62926;BME280;55732;52.248;-0.844;2023-02-22T02:52:30;100246.33;;;7.18;88.88
62926;BME280;55732;52.248;-0.844;2023-02-22T02:54:58;100242.13;;;7.18;89.18
62926;BME280;55732;52.248;-0.844;2023-02-22T02:57:25;100241.09;;;7.19;89.07
62926;BME280;55732;52.248;-0.844;2023-02-22T02:59:50;100241.25;;;7.19;89.13
62926;BME280;55732;52.248;-0.844;2023-02-22T03:10:51;100229.16;;;7.20;89.35
62926;BME280;55732;52.248;-0.844;2023-02-22T03:18:29;100229.55;;;7.24;89.63
62926;BME280;55732;52.248;-0.844;2023-02-22T03:23:52;100216.76;;;7.23;89.56
62926;BME280;55732;52.248;-0.844;2023-02-22T03:26:34;100216.04;;;7.20;89.64
62926;BME280;55732;52.248;-0.844;2023-02-22T03:29:05;100214.65;;;7.19;89.79
62926;BME280;55732;52.248;-0.844;2023-02-22T03:31:39;100207.46;;;7.18;89.88
62926;BME280;55732;52.248;-0.844;2023-02-22T03:34:17;100204.83;;;7.18;89.93
62926;BME280;55732;52.248;-0.844;2023-02-22T03:36:56;100204.30;;;7.19;89.93
62926;BME280;55732;52.248;-0.844;2023-02-22T03:39:25;100198.69;;;7.20;90.12
62926;BME280;55732;52.248;-0.844;2023-02-22T03:41:59;100196.24;;;7.21;90.10
62926;BME280;55732;52.248;-0.844;2023-02-22T03:44:30;100199.23;;;7.22;90.12
62926;BME280;55732;52.248;-0.844;2023-02-22T03:47:00;100195.39;;;7.22;90.18
62926;BME280;55732;52.248;-0.844;2023-02-22T03:51:56;100196.42;;;7.20;90.05
62926;BME280;55732;52.248;-0.844;2023-02-22T03:54:22;100189.08;;;7.19;90.08
62926;BME280;55732;52.248;-0.844;2023-02-22T03:56:52;100191.88;;;7.18;90.18
62926;BME280;55732;52.248;-0.844;2023-02-22T03:59:20;100198.36;;;7.18;90.25
62926;BME280;55732;52.248;-0.844;2023-02-22T04:01:52;100193.44;;;7.17;90.20
62926;BME280;55732;52.248;-0.844;2023-02-22T04:04:18;100189.05;;;7.16;90.29
62926;BME280;55732;52.248;-0.844;2023-02-22T04:06:45;100187.13;;;7.16;90.46
62926;BME280;55732;52.248;-0.844;2023-02-22T04:09:13;100188.19;;;7.17;90.49
62926;BME280;55732;52.248;-0.844;2023-02-22T04:11:38;100184.34;;;7.17;90.48
62926;BME280;55732;52.248;-0.844;2023-02-22T04:14:04;100187.33;;;7.18;90.65
62926;BME280;55732;52.248;-0.844;2023-02-22T04:16:30;100188.20;;;7.19;90.53
62926;BME280;55732;52.248;-0.844;2023-02-22T04:18:55;100188.55;;;7.18;90.40
62926;BME280;55732;52.248;-0.844;2023-02-22T04:21:20;100183.13;;;7.19;90.48
62926;BME280;55732;52.248;-0.844;2023-02-22T04:23:46;100180.67;;;7.19;90.55
62926;BME280;55732;52.248;-0.844;2023-02-22T04:26:11;100177.86;;;7.19;90.59
62926;BME280;55732;52.248;-0.844;2023-02-22T04:28:37;100176.98;;;7.17;90.50
62926;BME280;55732;52.248;-0.844;2023-02-22T04:31:02;100177.50;;;7.17;90.58
62926;BME280;55732;52.248;-0.844;2023-02-22T04:33:27;100182.08;;;7.18;90.55
62926;BME280;55732;52.248;-0.844;2023-02-22T04:35:53;100179.44;;;7.18;90.47
62926;BME280;55732;52.248;-0.844;2023-02-22T04:38:18;100176.11;;;7.18;90.38
62926;BME280;55732;52.248;-0.844;2023-02-22T04:40:44;100169.63;;;7.16;90.38
62926;BME280;55732;52.248;-0.844;2023-02-22T04:43:09;100163.14;;;7.15;90.30
62926;BME280;55732;52.248;-0.844;2023-02-22T04:45:35;100157.52;;;7.14;90.35
62926;BME280;55732;52.248;-0.844;2023-02-22T04:48:00;100154.70;;;7.12;90.43
62926;BME280;55732;52.248;-0.844;2023-02-22T04:50:26;100154.88;;;7.11;90.41
62926;BME280;55732;52.248;-0.844;2023-02-22T04:52:52;100153.48;;;7.11;90.62
62926;BME280;55732;52.248;-0.844;2023-02-22T04:55:18;100154.70;;;7.12;90.58
62926;BME280;55732;52.248;-0.844;2023-02-22T04:57:43;100149.27;;;7.12;90.55
62926;BME280;55732;52.248;-0.844;2023-02-22T05:00:09;100154.17;;;7.11;90.56
62926;BME280;55732;52.248;-0.844;2023-02-22T05:02:37;100150.14;;;7.10;90.55
62926;BME280;55732;52.248;-0.844;2023-02-22T05:05:04;100148.73;;;7.09;90.62
62926;BME280;55732;52.248;-0.844;2023-02-22T05:07:29;100146.64;;;7.07;90.74
62926;BME280;55732;52.248;-0.844;2023-02-22T05:09:55;100146.98;;;7.06;90.73
62926;BME280;55732;52.248;-0.844;2023-02-22T05:12:20;100145.58;;;7.05;90.84
62926;BME280;55732;52.248;-0.844;2023-02-22T05:14:46;100142.77;;;7.05;90.92
62926;BME280;55732;52.248;-0.844;2023-02-22T05:17:11;100149.06;;;7.03;90.65
62926;BME280;55732;52.248;-0.844;2023-02-22T05:19:37;100147.30;;;7.03;91.11
62926;BME280;55732;52.248;-0.844;2023-02-22T05:22:02;100146.80;;;7.05;91.05
62926;BME280;55732;52.248;-0.844;2023-02-22T05:24:30;100147.50;;;7.05;91.08
62926;BME280;55732;52.248;-0.844;2023-02-22T05:26:55;100149.08;;;7.05;91.13
62926;BME280;55732;52.248;-0.844;2023-02-22T05:29:21;100148.39;;;7.07;91.33
62926;BME280;55732;52.248;-0.844;2023-02-22T05:31:46;100142.79;;;7.08;91.23
62926;BME280;55732;52.248;-0.844;2023-02-22T05:34:12;100132.60;;;7.03;91.31
62926;BME280;55732;52.248;-0.844;2023-02-22T05:36:38;100134.89;;;7.07;91.24
62926;BME280;55732;52.248;-0.844;2023-02-22T05:39:04;100138.94;;;7.10;91.17
62926;BME280;55732;52.248;-0.844;2023-02-22T05:41:29;100139.81;;;7.10;91.28
62926;BME280;55732;52.248;-0.844;2023-02-22T05:43:54;100137.02;;;7.10;91.26
62926;BME280;55732;52.248;-0.844;2023-02-22T05:46:20;100137.70;;;7.09;91.15
62926;BME280;55732;52.248;-0.844;2023-02-22T05:48:45;100135.95;;;7.08;91.36
62926;BME280;55732;52.248;-0.844;2023-02-22T05:51:11;100138.23;;;7.08;91.25
62926;BME280;55732;52.248;-0.844;2023-02-22T05:53:36;100140.34;;;7.07;91.25
62926;BME280;55732;52.248;-0.844;2023-02-22T05:56:02;100136.84;;;7.06;91.19
62926;BME280;55732;52.248;-0.844;2023-02-22T05:58:27;100133.48;;;7.04;91.13
62926;BME280;55732;52.248;-0.844;2023-02-22T06:00:53;100138.20;;;7.03;91.30
62926;BME280;55732;52.248;-0.844;2023-02-22T06:03:18;100135.92;;;7.03;91.29
62926;BME280;55732;52.248;-0.844;2023-02-22T06:05:43;100140.11;;;7.01;91.24
62926;BME280;55732;52.248;-0.844;2023-02-22T06:08:09;100140.96;;;6.98;91.29
62926;BME280;55732;52.248;-0.844;2023-02-22T06:10:34;100132.91;;;6.94;91.27
62926;BME280;55732;52.248;-0.844;2023-02-22T06:13:02;100133.07;;;6.92;91.47
62926;BME280;55732;52.248;-0.844;2023-02-22T06:15:28;100128.52;;;6.92;91.65
62926;BME280;55732;52.248;-0.844;2023-02-22T06:17:55;100125.88;;;6.91;91.62
62926;BME280;55732;52.248;-0.844;2023-02-22T06:20:24;100120.80;;;6.90;91.62
62926;BME280;55732;52.248;-0.844;2023-02-22T06:22:51;100120.27;;;6.89;91.79
62926;BME280;55732;52.248;-0.844;2023-02-22T06:25:20;100119.73;;;6.88;91.84
62926;BME280;55732;52.248;-0.844;2023-02-22T06:27:46;100119.02;;;6.87;91.84
62926;BME280;55732;52.248;-0.844;2023-02-22T06:30:13;100124.09;;;6.86;91.75
62926;BME280;55732;52.248;-0.844;2023-02-22T06:32:39;100122.86;;;6.84;91.93
62926;BME280;55732;52.248;-0.844;2023-02-22T06:35:05;100125.15;;;6.83;91.85
62926;BME280;55732;52.248;-0.844;2023-02-22T06:37:30;100123.58;;;6.83;91.94
62926;BME280;55732;52.248;-0.844;2023-02-22T06:39:56;100121.81;;;6.83;92.12
62926;BME280;55732;52.248;-0.844;2023-02-22T06:42:21;100125.66;;;6.82;91.98
62926;BME280;55732;52.248;-0.844;2023-02-22T06:44:48;100126.52;;;6.82;92.08
62926;BME280;55732;52.248;-0.844;2023-02-22T06:47:13;100122.14;;;6.80;92.06
62926;BME280;55732;52.248;-0.844;2023-02-22T06:49:39;100125.29;;;6.80;92.11
62926;BME280;55732;52.248;-0.844;2023-02-22T06:52:05;100130.36;;;6.80;92.18
62926;BME280;55732;52.248;-0.844;2023-02-22T06:54:31;100129.48;;;6.80;92.21
62926;BME280;55732;52.248;-0.844;2023-02-22T06:56:56;100126.52;;;6.80;92.08
62926;BME280;55732;52.248;-0.844;2023-02-22T06:59:22;100127.73;;;6.80;92.16
62926;BME280;55732;52.248;-0.844;2023-02-22T07:01:47;100127.56;;;6.80;92.25
62926;BME280;55732;52.248;-0.844;2023-02-22T07:04:13;100123.03;;;6.81;92.13
62926;BME280;55732;52.248;-0.844;2023-02-22T07:06:45;100123.37;;;6.81;92.22
62926;BME280;55732;52.248;-0.844;2023-02-22T07:09:12;100124.42;;;6.81;92.15
62926;BME280;55732;52.248;-0.844;2023-02-22T07:11:38;100120.73;;;6.80;92.09
62926;BME280;55732;52.248;-0.844;2023-02-22T07:14:04;100123.17;;;6.79;92.10
62926;BME280;55732;52.248;-0.844;2023-02-22T07:16:29;100123.00;;;6.79;92.06
62926;BME280;55732;52.248;-0.844;2023-02-22T07:18:55;100123.00;;;6.78;92.06
62926;BME280;55732;52.248;-0.844;2023-02-22T07:21:20;100127.71;;;6.77;92.02
62926;BME280;55732;52.248;-0.844;2023-02-22T07:23:53;100130.34;;;6.77;92.26
62926;BME280;55732;52.248;-0.844;2023-02-22T07:26:19;100130.33;;;6.77;92.18
62926;BME280;55732;52.248;-0.844;2023-02-22T07:28:44;100131.91;;;6.78;92.10
62926;BME280;55732;52.248;-0.844;2023-02-22T07:31:10;100133.33;;;6.79;92.20
62926;BME280;55732;52.248;-0.844;2023-02-22T07:33:35;100136.48;;;6.81;92.05
62926;BME280;55732;52.248;-0.844;2023-02-22T07:36:01;100133.89;;;6.83;92.05
62926;BME280;55732;52.248;-0.844;2023-02-22T07:38:26;100137.58;;;6.87;92.00
62926;BME280;55732;52.248;-0.844;2023-02-22T07:40:53;100133.42;;;6.93;91.99
62926;BME280;55732;52.248;-0.844;2023-02-22T07:43:21;100131.69;;;6.97;91.93
62926;BME280;55732;52.248;-0.844;2023-02-22T07:45:48;100135.58;;;7.02;91.74
62926;BME280;55732;52.248;-0.844;2023-02-22T07:48:15;100134.90;;;7.07;91.61
62926;BME280;55732;52.248;-0.844;2023-02-22T07:50:41;100135.78;;;7.10;91.60
62926;BME280;55732;52.248;-0.844;2023-02-22T07:53:16;100139.14;;;7.13;91.51
62926;BME280;55732;52.248;-0.844;2023-02-22T07:55:42;100145.11;;;7.16;91.52
62926;BME280;55732;52.248;-0.844;2023-02-22T07:58:08;100149.86;;;7.19;91.60
62926;BME280;55732;52.248;-0.844;2023-02-22T08:00:38;100150.90;;;7.21;91.46
62926;BME280;55732;52.248;-0.844;2023-02-22T08:03:06;100148.10;;;7.22;91.44
62926;BME280;55732;52.248;-0.844;2023-02-22T08:05:34;100148.10;;;7.23;91.47
62926;BME280;55732;52.248;-0.844;2023-02-22T08:08:00;100149.88;;;7.24;91.55
62926;BME280;55732;52.248;-0.844;2023-02-22T08:10:27;100148.49;;;7.27;91.41
62926;BME280;55732;52.248;-0.844;2023-02-22T08:12:53;100152.88;;;7.28;91.32
62926;BME280;55732;52.248;-0.844;2023-02-22T08:15:24;100153.77;;;7.31;91.37
62926;BME280;55732;52.248;-0.844;2023-02-22T08:17:50;100151.84;;;7.35;91.22
62926;BME280;55732;52.248;-0.844;2023-02-22T08:20:18;100151.17;;;7.38;91.03
62926;BME280;55732;52.248;-0.844;2023-02-22T08:22:44;100149.77;;;7.40;91.01
62926;BME280;55732;52.248;-0.844;2023-02-22T08:25:11;100146.48;;;7.42;91.25
62926;BME280;55732;52.248;-0.844;2023-02-22T08:27:36;100143.83;;;7.44;91.20
62926;BME280;55732;52.248;-0.844;2023-02-22T08:30:03;100146.98;;;7.46;91.23
62926;BME280;55732;52.248;-0.844;2023-02-22T08:32:28;100149.10;;;7.47;91.13
62926;BME280;55732;52.248;-0.844;2023-02-22T08:34:54;100153.30;;;7.47;91.23
62926;BME280;55732;52.248;-0.844;2023-02-22T08:37:20;100156.11;;;7.47;91.09
62926;BME280;55732;52.248;-0.844;2023-02-22T08:39:45;100152.96;;;7.48;91.04
62926;BME280;55732;52.248;-0.844;2023-02-22T08:42:11;100153.67;;;7.50;91.18
62926;BME280;55732;52.248;-0.844;2023-02-22T08:44:37;100150.02;;;7.52;91.24
62926;BME280;55732;52.248;-0.844;2023-02-22T08:47:03;100152.30;;;7.52;91.10
62926;BME280;55732;52.248;-0.844;2023-02-22T08:49:29;100151.77;;;7.52;91.13
62926;BME280;55732;52.248;-0.844;2023-02-22T08:51:54;100153.52;;;7.53;91.07
62926;BME280;55732;52.248;-0.844;2023-02-22T08:54:20;100161.06;;;7.54;91.35
62926;BME280;55732;52.248;-0.844;2023-02-22T08:56:47;100157.38;;;7.55;91.36
62926;BME280;55732;52.248;-0.844;2023-02-22T08:59:13;100157.73;;;7.57;91.31
62926;BME280;55732;52.248;-0.844;2023-02-22T09:01:39;100158.42;;;7.58;91.32
62926;BME280;55732;52.248;-0.844;2023-02-22T09:04:04;100160.02;;;7.59;91.22
62926;BME280;55732;52.248;-0.844;2023-02-22T09:06:30;100156.69;;;7.60;91.15
62926;BME280;55732;52.248;-0.844;2023-02-22T09:08:55;100152.85;;;7.63;91.14
62926;BME280;55732;52.248;-0.844;2023-02-22T09:11:21;100154.09;;;7.65;91.24
62926;BME280;55732;52.248;-0.844;2023-02-22T09:13:47;100154.10;;;7.70;91.28
62926;BME280;55732;52.248;-0.844;2023-02-22T09:16:12;100159.73;;;7.74;91.10
62926;BME280;55732;52.248;-0.844;2023-02-22T09:18:38;100160.44;;;7.78;91.05
62926;BME280;55732;52.248;-0.844;2023-02-22T09:21:04;100165.34;;;7.80;91.08
62926;BME280;55732;52.248;-0.844;2023-02-22T09:23:30;100164.29;;;7.80;91.13
62926;BME280;55732;52.248;-0.844;2023-02-22T09:25:56;100168.14;;;7.80;91.05
62926;BME280;55732;52.248;-0.844;2023-02-22T09:28:25;100167.61;;;7.80;91.13
62926;BME280;55732;52.248;-0.844;2023-02-22T09:30:51;100162.71;;;7.81;91.12
62926;BME280;55732;52.248;-0.844;2023-02-22T09:33:18;100164.65;;;7.82;91.17
62926;BME280;55732;52.248;-0.844;2023-02-22T09:35:45;100166.77;;;7.86;91.11
62926;BME280;55732;52.248;-0.844;2023-02-22T09:38:13;100168.02;;;7.89;91.03
62926;BME280;55732;52.248;-0.844;2023-02-22T09:40:42;100167.30;;;7.91;90.83
62926;BME280;55732;52.248;-0.844;2023-02-22T09:48:44;100166.13;;;8.00;91.05
62926;BME280;55732;52.248;-0.844;2023-02-22T09:51:14;100166.11;;;8.04;90.84
62926;BME280;55732;52.248;-0.844;2023-02-22T09:53:44;100168.21;;;8.04;90.64
62926;BME280;55732;52.248;-0.844;2023-02-22T09:56:17;100174.00;;;8.06;90.73
62926;BME280;55732;52.248;-0.844;2023-02-22T09:58:47;100172.61;;;8.06;90.68
62926;BME280;55732;52.248;-0.844;2023-02-22T10:01:29;100177.70;;;8.07;90.78
62926;BME280;55732;52.248;-0.844;2023-02-22T10:06:31;100173.33;;;8.11;90.51
62926;BME280;55732;52.248;-0.844;2023-02-22T10:09:00;100174.74;;;8.13;90.55
62926;BME280;55732;52.248;-0.844;2023-02-22T10:17:13;100174.91;;;8.20;90.25
62926;BME280;55732;52.248;-0.844;2023-02-22T10:29:58;100174.10;;;8.39;90.24
62926;BME280;55732;52.248;-0.844;2023-02-22T10:32:31;100175.52;;;8.48;90.26
62926;BME280;55732;52.248;-0.844;2023-02-22T10:35:00;100179.89;;;8.54;90.12
62926;BME280;55732;52.248;-0.844;2023-02-22T10:37:33;100184.48;;;8.58;89.85
62926;BME280;55732;52.248;-0.844;2023-02-22T10:42:42;100186.56;;;8.62;89.70
62926;BME280;55732;52.248;-0.844;2023-02-22T10:45:31;100187.11;;;8.60;89.50
62926;BME280;55732;52.248;-0.844;2023-02-22T10:48:00;100184.83;;;8.58;89.54
62926;BME280;55732;52.248;-0.844;2023-02-22T10:50:33;100188.51;;;8.58;89.64
62926;BME280;55732;52.248;-0.844;2023-02-22T10:53:01;100192.55;;;8.58;89.69
62926;BME280;55732;52.248;-0.844;2023-02-22T10:55:26;100193.41;;;8.57;89.56
62926;BME280;55732;52.248;-0.844;2023-02-22T10:58:02;100194.64;;;8.55;89.62
62926;BME280;55732;52.248;-0.844;2023-02-22T11:00:38;100198.15;;;8.56;89.72
62926;BME280;55732;52.248;-0.844;2023-02-22T11:03:20;100197.98;;;8.59;89.78
62926;BME280;55732;52.248;-0.844;2023-02-22T11:05:46;100200.25;;;8.63;89.71
62926;BME280;55732;52.248;-0.844;2023-02-22T11:08:29;100196.76;;;8.68;89.69
62926;BME280;55732;52.248;-0.844;2023-02-22T11:11:00;100195.52;;;8.73;89.68
62926;BME280;55732;52.248;-0.844;2023-02-22T11:13:37;100194.81;;;8.78;89.67
62926;BME280;55732;52.248;-0.844;2023-02-22T11:16:27;100196.77;;;8.82;89.26
62926;BME280;55732;52.248;-0.844;2023-02-22T11:19:11;100193.05;;;8.88;89.11
62926;BME280;55732;52.248;-0.844;2023-02-22T11:21:42;100193.22;;;8.98;89.02
62926;BME280;55732;52.248;-0.844;2023-02-22T11:24:10;100195.48;;;9.11;89.03
62926;BME280;55732;52.248;-0.844;2023-02-22T11:26:49;100197.41;;;9.20;88.59
62926;BME280;55732;52.248;-0.844;2023-02-22T11:29:19;100192.83;;;9.29;88.54
62926;BME280;55732;52.248;-0.844;2023-02-22T11:31:46;100193.67;;;9.36;88.30
62926;BME280;55732;52.248;-0.844;2023-02-22T11:34:36;100191.74;;;9.40;88.05
62926;BME280;55732;52.248;-0.844;2023-02-22T11:39:47;100192.91;;;9.58;87.58
62926;BME280;55732;52.248;-0.844;2023-02-22T11:42:23;100190.69;;;9.84;87.07
62926;BME280;55732;52.248;-0.844;2023-02-22T11:45:09;100194.63;;;10.06;86.57
62926;BME280;55732;52.248;-0.844;2023-02-22T11:56:35;100199.01;;;10.10;85.42
62926;BME280;55732;52.248;-0.844;2023-02-22T11:59:02;100199.04;;;10.05;85.35
62926;BME280;55732;52.248;-0.844;2023-02-22T12:01:53;100196.94;;;10.03;85.29
62926;BME280;55732;52.248;-0.844;2023-02-22T12:18:14;100207.55;;;9.92;84.44
62926;BME280;55732;52.248;-0.844;2023-02-22T12:20:46;100208.48;;;9.77;84.50
62926;BME280;55732;52.248;-0.844;2023-02-22T12:26:27;100212.80;;;9.53;83.60
62926;BME280;55732;52.248;-0.844;2023-02-22T12:29:02;100209.99;;;9.46;83.41
62926;BME280;55732;52.248;-0.844;2023-02-22T12:31:49;100213.54;;;9.43;83.14
62926;BME280;55732;52.248;-0.844;2023-02-22T12:37:10;100223.72;;;9.37;83.13
62926;BME280;55732;52.248;-0.844;2023-02-22T12:39:53;100222.14;;;9.40;83.02
62926;BME280;55732;52.248;-0.844;2023-02-22T12:42:28;100225.84;;;9.41;82.84
62926;BME280;55732;52.248;-0.844;2023-02-22T12:45:00;100223.17;;;9.51;82.76
62926;BME280;55732;52.248;-0.844;2023-02-22T12:47:38;100219.95;;;9.67;82.24
62926;BME280;55732;52.248;-0.844;2023-02-22T12:50:16;100214.06;;;9.89;81.72
62926;BME280;55732;52.248;-0.844;2023-02-22T12:53:15;100219.41;;;10.13;81.12
62926;BME280;55732;52.248;-0.844;2023-02-22T12:55:51;100220.83;;;10.45;80.66
62926;BME280;55732;52.248;-0.844;2023-02-22T12:58:26;100226.27;;;10.72;80.04
62926;BME280;55732;52.248;-0.844;2023-02-22T13:01:16;100229.20;;;10.80;79.21
62926;BME280;55732;52.248;-0.844;2023-02-22T13:03:44;100234.49;;;10.77;79.02
62926;BME280;55732;52.248;-0.844;2023-02-22T13:09:11;100234.49;;;10.54;78.97
62926;BME280;55732;52.248;-0.844;2023-02-22T13:16:56;100241.06;;;10.48;78.04
62926;BME280;55732;52.248;-0.844;2023-02-22T13:19:42;100242.66;;;10.41;77.87
62926;BME280;55732;52.248;-0.844;2023-02-22T13:22:18;100244.75;;;10.46;77.93
62926;BME280;55732;52.248;-0.844;2023-02-22T13:27:51;100240.72;;;10.70;76.80
62926;BME280;55732;52.248;-0.844;2023-02-22T13:30:31;100235.36;;;10.80;76.80
62926;BME280;55732;52.248;-0.844;2023-02-22T13:44:38;100242.77;;;10.79;75.96
62926;BME280;55732;52.248;-0.844;2023-02-22T13:52:14;100243.05;;;10.38;75.56
62926;BME280;55732;52.248;-0.844;2023-02-22T13:54:44;100241.15;;;10.31;75.49
62926;BME280;55732;52.248;-0.844;2023-02-22T14:08:03;100249.48;;;10.51;74.47
62926;BME280;55732;52.248;-0.844;2023-02-22T14:13:11;100248.61;;;10.48;74.03
62926;BME280;55732;52.248;-0.844;2023-02-22T14:21:12;100247.89;;;10.75;73.13
62926;BME280;55732;52.248;-0.844;2023-02-22T14:23:46;100246.68;;;10.74;72.79
62926;BME280;55732;52.248;-0.844;2023-02-22T14:26:30;100245.68;;;10.66;72.49
62926;BME280;55732;52.248;-0.844;2023-02-22T14:31:32;100249.21;;;10.37;72.07
62926;BME280;55732;52.248;-0.844;2023-02-22T14:34:02;100247.48;;;10.32;72.04
62926;BME280;55732;52.248;-0.844;2023-02-22T14:36:32;100247.30;;;10.35;71.75
62926;BME280;55732;52.248;-0.844;2023-02-22T14:39:17;100248.12;;;10.44;71.95
62926;BME280;55732;52.248;-0.844;2023-02-22T14:42:15;100249.46;;;10.52;71.75
62926;BME280;55732;52.248;-0.844;2023-02-22T14:47:18;100248.91;;;10.57;71.92
62926;BME280;55732;52.248;-0.844;2023-02-22T14:49:48;100251.59;;;10.49;72.02
62926;BME280;55732;52.248;-0.844;2023-02-22T14:52:21;100256.08;;;10.38;72.17
62926;BME280;55732;52.248;-0.844;2023-02-22T14:57:29;100257.05;;;10.10;72.67
62926;BME280;55732;52.248;-0.844;2023-02-22T15:00:12;100257.98;;;10.00;72.72
62926;BME280;55732;52.248;-0.844;2023-02-22T15:02:46;100252.89;;;9.95;72.65
62926;BME280;55732;52.248;-0.844;2023-02-22T15:05:14;100251.66;;;9.97;72.68
62926;BME280;55732;52.248;-0.844;2023-02-22T15:07:52;100253.95;;;9.94;72.51
62926;BME280;55732;52.248;-0.844;2023-02-22T15:13:00;100255.42;;;9.81;72.61
62926;BME280;55732;52.248;-0.844;2023-02-22T15:15:51;100258.26;;;9.78;72.10
62926;BME280;55732;52.248;-0.844;2023-02-22T15:20:49;100257.56;;;9.77;71.64
62926;BME280;55732;52.248;-0.844;2023-02-22T15:23:22;100262.81;;;9.79;71.97
62926;BME280;55732;52.248;-0.844;2023-02-22T15:25:49;100261.56;;;9.85;71.94
62926;BME280;55732;52.248;-0.844;2023-02-22T15:28:16;100261.02;;;9.89;71.87
62926;BME280;55732;52.248;-0.844;2023-02-22T15:30:42;100262.40;;;9.94;71.71
62926;BME280;55732;52.248;-0.844;2023-02-22T15:33:12;100263.80;;;9.96;71.72
62926;BME280;55732;52.248;-0.844;2023-02-22T15:35:39;100262.92;;;9.96;71.57
62926;BME280;55732;52.248;-0.844;2023-02-22T15:38:05;100264.52;;;9.96;71.67